createdAt,value
2022-12-31T00:00:13.649Z,10.60
2022-12-31T00:02:40.618Z,11.77
2022-12-31T00:05:07.840Z,10.70
2022-12-31T00:10:04.687Z,11.07
2022-12-31T00:12:31.686Z,9.30
2022-12-31T00:14:58.720Z,14.57
2022-12-31T00:17:25.649Z,12.07
2022-12-31T00:19:52.509Z,12.27
2022-12-31T00:22:19.289Z,12.57
2022-12-31T00:24:46.134Z,10.67
2022-12-31T00:27:12.994Z,11.30
2022-12-31T00:29:39.763Z,11.60
2022-12-31T00:32:06.639Z,10.27
2022-12-31T00:34:33.432Z,8.80
2022-12-31T00:37:00.286Z,11.67
2022-12-31T00:39:27.193Z,14.27
2022-12-31T00:41:54.067Z,9.60
2022-12-31T00:44:21.143Z,9.70
2022-12-31T00:46:48.479Z,7.90
2022-12-31T00:49:15.498Z,8.07
2022-12-31T00:51:42.340Z,9.07
2022-12-31T00:54:10.099Z,9.30
2022-12-31T00:56:37.009Z,8.00
2022-12-31T00:59:04.291Z,8.13
2022-12-31T01:01:34.073Z,8.97
2022-12-31T01:04:13.681Z,6.77
2022-12-31T01:06:41.518Z,7.43
2022-12-31T01:09:10.032Z,7.60
2022-12-31T01:11:37.361Z,6.60
2022-12-31T01:14:09.220Z,6.37
2022-12-31T01:16:54.128Z,6.17
2022-12-31T01:19:23.988Z,6.43
2022-12-31T01:21:51.490Z,5.17
2022-12-31T01:24:18.955Z,5.10
2022-12-31T01:26:46.907Z,17.23
2022-12-31T01:29:15.056Z,17.00
2022-12-31T01:31:41.999Z,28.27
2022-12-31T01:34:08.846Z,14.60
2022-12-31T01:36:37.424Z,5.93
2022-12-31T01:39:07.066Z,15.73
2022-12-31T01:41:38.015Z,5.53
2022-12-31T01:44:14.024Z,3.77
2022-12-31T01:46:44.803Z,4.70
2022-12-31T01:49:19.515Z,2.07
2022-12-31T01:51:51.916Z,1.83
2022-12-31T01:54:24.833Z,3.20
2022-12-31T01:56:53.552Z,3.67
2022-12-31T01:59:22.580Z,1.37
2022-12-31T02:01:55.474Z,1.60
2022-12-31T02:04:25.103Z,1.73
2022-12-31T02:06:54.012Z,1.83
2022-12-31T02:09:21.170Z,1.53
2022-12-31T02:11:48.024Z,2.10
2022-12-31T02:14:34.870Z,1.30
2022-12-31T02:17:14.969Z,1.77
2022-12-31T02:20:06.332Z,1.50
2022-12-31T02:22:35.960Z,2.40
2022-12-31T02:25:02.931Z,3.47
2022-12-31T02:28:03.787Z,3.33
2022-12-31T02:30:32.704Z,1.93
2022-12-31T02:33:08.367Z,1.63
2022-12-31T02:35:55.499Z,1.30
2022-12-31T02:38:31.308Z,1.10
2022-12-31T02:40:59.093Z,1.00
2022-12-31T02:43:26.541Z,1.10
2022-12-31T02:46:22.234Z,0.90
2022-12-31T02:49:07.506Z,0.97
2022-12-31T02:51:44.347Z,0.80
2022-12-31T02:54:20.358Z,1.60
2022-12-31T02:57:15.489Z,1.40
2022-12-31T03:00:36.786Z,0.90
2022-12-31T03:03:06.456Z,4.83
2022-12-31T03:05:37.875Z,1.00
2022-12-31T03:08:04.883Z,1.10
2022-12-31T03:10:31.783Z,1.57
2022-12-31T03:12:59.131Z,1.00
2022-12-31T03:15:31.359Z,2.30
2022-12-31T03:18:13.699Z,1.03
2022-12-31T03:21:04.940Z,1.20
2022-12-31T03:23:38.498Z,0.80
2022-12-31T03:26:10.776Z,2.43
2022-12-31T03:28:40.176Z,0.90
2022-12-31T03:31:07.558Z,0.97
2022-12-31T03:33:38.665Z,2.00
2022-12-31T03:36:08.671Z,2.03
2022-12-31T03:38:35.916Z,2.67
2022-12-31T03:41:03.391Z,0.70
2022-12-31T03:43:30.181Z,1.40
2022-12-31T03:45:59.810Z,0.90
2022-12-31T03:48:27.199Z,1.93
2022-12-31T03:50:54.046Z,0.80
2022-12-31T03:53:20.896Z,1.40
2022-12-31T03:55:52.314Z,0.90
2022-12-31T03:58:19.221Z,1.03
2022-12-31T04:00:46.148Z,0.80
2022-12-31T04:03:12.958Z,1.13
2022-12-31T04:05:40.434Z,1.40
2022-12-31T04:08:07.259Z,1.00
2022-12-31T04:10:34.072Z,1.13
2022-12-31T04:13:04.281Z,0.70
2022-12-31T04:15:31.194Z,1.20
2022-12-31T04:17:57.959Z,1.10
2022-12-31T04:20:24.803Z,1.20
2022-12-31T04:22:51.744Z,5.80
2022-12-31T04:25:19.838Z,6.07
2022-12-31T04:27:46.684Z,18.57
2022-12-31T04:30:14.057Z,3.03
2022-12-31T04:32:41.527Z,2.67
2022-12-31T04:35:09.347Z,1.50
2022-12-31T04:37:36.319Z,1.07
2022-12-31T04:40:06.187Z,1.00
2022-12-31T04:42:34.425Z,1.00
2022-12-31T04:45:01.240Z,2.77
2022-12-31T04:47:28.158Z,1.03
2022-12-31T04:49:55.221Z,0.80
2022-12-31T04:52:22.381Z,1.77
2022-12-31T04:54:49.189Z,0.70
2022-12-31T04:57:16.099Z,0.90
2022-12-31T04:59:43.105Z,0.70
2022-12-31T05:02:10.274Z,0.90
2022-12-31T05:04:37.270Z,1.33
2022-12-31T05:07:04.144Z,1.07
2022-12-31T05:09:31.230Z,1.07
2022-12-31T05:11:58.435Z,0.97
2022-12-31T05:14:25.500Z,1.27
2022-12-31T05:16:52.560Z,0.80
2022-12-31T05:19:19.445Z,0.70
2022-12-31T05:22:06.417Z,0.60
2022-12-31T05:24:33.269Z,2.53
2022-12-31T05:27:00.285Z,0.73
2022-12-31T05:29:27.281Z,0.80
2022-12-31T05:31:54.136Z,0.87
2022-12-31T05:34:20.971Z,1.90
2022-12-31T05:36:47.764Z,0.60
2022-12-31T05:39:14.684Z,1.47
2022-12-31T05:41:41.487Z,2.40
2022-12-31T05:44:08.391Z,1.47
2022-12-31T05:46:35.241Z,0.80
2022-12-31T05:49:02.012Z,1.03
2022-12-31T05:51:28.818Z,0.80
2022-12-31T05:53:55.641Z,1.63
2022-12-31T05:56:22.586Z,0.70
2022-12-31T05:58:49.502Z,0.73
2022-12-31T06:01:16.468Z,1.47
2022-12-31T06:03:43.308Z,1.17
2022-12-31T06:06:10.129Z,1.03
2022-12-31T06:08:36.929Z,0.80
2022-12-31T06:11:04.183Z,1.60
2022-12-31T06:13:30.969Z,2.37
2022-12-31T06:15:57.946Z,2.33
2022-12-31T06:18:24.754Z,3.03
2022-12-31T06:20:51.555Z,1.33
2022-12-31T06:23:18.381Z,2.27
2022-12-31T06:25:45.224Z,1.50
2022-12-31T06:28:17.964Z,2.60
2022-12-31T06:30:47.382Z,1.53
2022-12-31T06:33:14.367Z,9.20
2022-12-31T06:35:41.229Z,4.37
2022-12-31T06:38:08.029Z,2.77
2022-12-31T06:40:37.603Z,2.23
2022-12-31T06:43:04.452Z,1.27
2022-12-31T06:45:31.210Z,2.77
2022-12-31T06:47:58.024Z,4.77
2022-12-31T06:50:24.837Z,2.40
2022-12-31T06:52:51.660Z,1.90
2022-12-31T06:55:18.872Z,1.40
2022-12-31T06:57:45.972Z,1.27
2022-12-31T07:00:13.475Z,1.33
2022-12-31T07:03:05.379Z,0.63
2022-12-31T07:05:42.518Z,0.90
2022-12-31T07:08:42.082Z,1.63
2022-12-31T07:11:23.641Z,2.13
2022-12-31T07:13:58.874Z,2.97
2022-12-31T07:16:28.894Z,1.47
2022-12-31T07:19:04.732Z,2.00
2022-12-31T07:21:39.243Z,1.13
2022-12-31T07:24:07.668Z,1.23
2022-12-31T07:27:10.102Z,2.53
2022-12-31T07:29:57.124Z,1.80
2022-12-31T07:32:38.742Z,1.07
2022-12-31T07:35:42.236Z,1.07
2022-12-31T07:38:26.072Z,1.10
2022-12-31T07:41:31.487Z,1.77
2022-12-31T07:44:27.064Z,1.20
2022-12-31T07:47:05.150Z,0.83
2022-12-31T07:49:34.231Z,2.60
2022-12-31T07:52:01.202Z,1.53
2022-12-31T07:54:28.015Z,1.30
2022-12-31T07:56:54.974Z,3.67
2022-12-31T07:59:49.123Z,6.97
2022-12-31T08:02:43.856Z,11.47
2022-12-31T08:05:49.118Z,1.50
2022-12-31T08:08:21.736Z,1.50
2022-12-31T08:11:00.063Z,2.37
2022-12-31T08:13:27.353Z,1.20
2022-12-31T08:15:54.489Z,1.13
2022-12-31T08:18:21.524Z,2.57
2022-12-31T08:20:56.073Z,1.70
2022-12-31T08:23:29.050Z,2.20
2022-12-31T08:26:23.641Z,1.70
2022-12-31T08:29:07.935Z,1.90
2022-12-31T08:31:52.792Z,2.67
2022-12-31T08:34:31.547Z,2.13
2022-12-31T08:37:27.269Z,1.53
2022-12-31T08:40:18.824Z,7.53
2022-12-31T08:42:57.635Z,4.43
2022-12-31T08:45:51.514Z,1.70
2022-12-31T08:48:24.980Z,2.33
2022-12-31T08:50:52.089Z,12.57
2022-12-31T08:53:19.228Z,13.00
2022-12-31T08:55:47.864Z,29.17
2022-12-31T08:58:38.127Z,5.07
2022-12-31T09:01:07.935Z,4.77
2022-12-31T09:03:51.002Z,4.00
2022-12-31T09:06:17.760Z,4.30
2022-12-31T09:08:54.555Z,5.33
2022-12-31T09:11:43.500Z,3.00
2022-12-31T09:14:32.295Z,2.63
2022-12-31T09:17:23.877Z,5.87
2022-12-31T09:19:51.376Z,2.80
2022-12-31T09:22:18.408Z,2.17
2022-12-31T09:24:45.497Z,3.63
2022-12-31T09:27:40.175Z,2.10
2022-12-31T09:30:11.289Z,1.93
2022-12-31T09:33:00.844Z,2.33
2022-12-31T09:35:38.581Z,2.30
2022-12-31T09:38:11.140Z,2.43
2022-12-31T09:41:09.225Z,1.90
2022-12-31T09:44:01.635Z,2.83
2022-12-31T09:46:50.019Z,2.63
2022-12-31T09:49:41.726Z,5.07
2022-12-31T09:52:33.261Z,4.30
2022-12-31T09:55:02.789Z,1.97
2022-12-31T09:57:41.303Z,13.10
2022-12-31T10:00:49.136Z,2.40
2022-12-31T10:03:34.450Z,1.40
2022-12-31T10:06:20.494Z,15.37
2022-12-31T10:09:10.301Z,1.73
2022-12-31T10:11:37.048Z,4.97
2022-12-31T10:14:32.790Z,17.60
2022-12-31T10:17:27.427Z,17.77
2022-12-31T10:20:03.009Z,22.27
2022-12-31T10:22:55.340Z,17.47
2022-12-31T10:25:39.580Z,1.60
2022-12-31T10:28:21.683Z,5.17
2022-12-31T10:31:12.448Z,2.13
2022-12-31T10:33:52.933Z,3.97
2022-12-31T10:36:52.949Z,2.33
2022-12-31T10:39:24.195Z,1.60
2022-12-31T10:42:28.980Z,1.73
2022-12-31T10:45:20.264Z,1.70
2022-12-31T10:48:02.201Z,5.57
2022-12-31T10:50:50.537Z,2.13
2022-12-31T10:53:29.331Z,3.03
2022-12-31T10:56:14.719Z,1.60
2022-12-31T10:58:53.460Z,1.20
2022-12-31T11:01:36.731Z,5.10
2022-12-31T11:04:37.430Z,1.23
2022-12-31T11:07:22.810Z,1.40
2022-12-31T11:10:08.157Z,1.73
2022-12-31T11:12:37.703Z,2.27
2022-12-31T11:15:22.675Z,15.87
2022-12-31T11:18:21.280Z,3.80
2022-12-31T11:20:57.077Z,10.33
2022-12-31T11:23:39.360Z,5.03
2022-12-31T11:26:11.973Z,5.47
2022-12-31T11:28:58.162Z,15.00
2022-12-31T11:31:46.755Z,6.07
2022-12-31T11:34:38.514Z,4.13
2022-12-31T11:37:11.163Z,7.70
2022-12-31T11:40:19.514Z,19.43
2022-12-31T11:42:58.848Z,5.00
2022-12-31T11:46:01.627Z,4.60
2022-12-31T11:48:41.884Z,5.73
2022-12-31T11:51:30.402Z,6.57
2022-12-31T11:54:39.054Z,8.27
2022-12-31T11:57:22.511Z,6.00
2022-12-31T11:59:54.703Z,6.87
2022-12-31T12:02:33.597Z,14.93
2022-12-31T12:05:10.332Z,4.40
2022-12-31T12:07:37.813Z,4.53
2022-12-31T12:10:29.272Z,5.80
2022-12-31T12:13:00.532Z,3.80
2022-12-31T12:15:34.998Z,3.40
2022-12-31T12:18:24.470Z,4.47
2022-12-31T12:20:51.730Z,4.27
2022-12-31T12:23:27.985Z,5.30
2022-12-31T12:26:35.176Z,4.77
2022-12-31T12:29:20.660Z,5.60
2022-12-31T12:31:59.470Z,5.33
2022-12-31T12:34:30.134Z,7.57
2022-12-31T12:36:57.710Z,3.80
2022-12-31T12:39:33.061Z,2.80
2022-12-31T12:42:14.124Z,2.90
2022-12-31T12:44:42.059Z,3.47
2022-12-31T12:47:17.695Z,4.93
2022-12-31T12:49:54.022Z,4.33
2022-12-31T12:52:33.843Z,3.80
2022-12-31T12:55:12.530Z,3.00
2022-12-31T12:57:57.929Z,3.40
2022-12-31T13:00:36.175Z,3.30
2022-12-31T13:03:15.055Z,4.00
2022-12-31T13:06:16.802Z,2.40
2022-12-31T13:09:02.197Z,2.67
2022-12-31T13:11:40.207Z,4.07
2022-12-31T13:14:27.948Z,2.40
2022-12-31T13:17:19.459Z,2.87
2022-12-31T13:20:15.507Z,3.33
2022-12-31T13:22:57.731Z,3.27
2022-12-31T13:25:34.070Z,2.90
2022-12-31T13:28:05.380Z,2.27
2022-12-31T13:30:52.290Z,2.83
2022-12-31T13:33:36.240Z,4.00
2022-12-31T13:36:07.517Z,3.53
2022-12-31T13:38:38.703Z,25.80
2022-12-31T13:41:13.688Z,4.80
2022-12-31T13:44:04.676Z,2.50
2022-12-31T13:46:31.514Z,2.40
2022-12-31T13:49:31.617Z,5.73
2022-12-31T13:52:07.152Z,3.73
2022-12-31T13:54:44.636Z,4.70
2022-12-31T13:57:23.980Z,4.60
2022-12-31T13:59:58.942Z,3.00
2022-12-31T14:02:43.222Z,3.17
2022-12-31T14:05:33.199Z,2.83
2022-12-31T14:08:02.165Z,3.47
2022-12-31T14:10:37.961Z,3.00
2022-12-31T14:13:17.456Z,3.30
2022-12-31T14:16:00.550Z,4.23
2022-12-31T14:18:56.911Z,3.53
2022-12-31T14:21:39.980Z,3.23
2022-12-31T14:24:12.927Z,3.73
2022-12-31T14:26:55.422Z,4.00
2022-12-31T14:29:35.218Z,3.43
2022-12-31T14:32:26.802Z,3.87
2022-12-31T14:35:02.453Z,3.40
2022-12-31T14:38:05.814Z,5.67
2022-12-31T14:41:03.008Z,3.43
2022-12-31T14:43:58.800Z,4.13
2022-12-31T14:46:53.756Z,4.47
2022-12-31T14:49:48.956Z,14.03
2022-12-31T14:52:23.120Z,5.43
2022-12-31T14:55:20.757Z,6.70
2022-12-31T14:58:26.373Z,7.77
2022-12-31T15:00:51.310Z,5.10
2022-12-31T15:03:18.173Z,7.90
2022-12-31T15:06:23.476Z,6.83
2022-12-31T15:09:22.842Z,7.60
2022-12-31T15:11:58.631Z,3.70
2022-12-31T15:14:56.137Z,5.60
2022-12-31T15:17:37.905Z,4.07
2022-12-31T15:20:27.947Z,5.53
2022-12-31T15:22:55.333Z,6.53
2022-12-31T15:25:35.258Z,6.00
2022-12-31T15:28:08.604Z,7.43
2022-12-31T15:30:44.793Z,23.47
2022-12-31T15:33:40.028Z,6.50
2022-12-31T15:36:17.235Z,13.27
2022-12-31T15:38:44.568Z,12.53
2022-12-31T15:41:18.755Z,11.40
2022-12-31T15:43:45.521Z,11.60
2022-12-31T15:46:19.611Z,11.73
2022-12-31T15:49:05.808Z,11.50
2022-12-31T15:52:06.679Z,9.60
2022-12-31T15:54:38.373Z,8.93
2022-12-31T15:57:09.365Z,10.47
2022-12-31T15:59:38.209Z,11.30
2022-12-31T16:02:16.440Z,9.90
2022-12-31T16:04:44.562Z,13.17
2022-12-31T16:07:12.277Z,11.60
2022-12-31T16:09:39.963Z,12.43
2022-12-31T16:12:15.847Z,11.67
2022-12-31T16:14:50.525Z,14.63
2022-12-31T16:17:35.362Z,18.03
2022-12-31T16:20:26.925Z,15.00
2022-12-31T16:22:59.101Z,16.30
2022-12-31T16:25:31.557Z,17.47
2022-12-31T16:28:01.110Z,18.60
2022-12-31T16:30:33.279Z,23.20
2022-12-31T16:33:03.569Z,17.83
2022-12-31T16:35:33.295Z,15.73
2022-12-31T16:38:19.527Z,17.30
2022-12-31T16:41:08.509Z,23.43
2022-12-31T16:43:40.759Z,23.87
2022-12-31T16:46:26.257Z,23.13
2022-12-31T16:49:00.314Z,21.50
2022-12-31T16:51:32.556Z,22.30
2022-12-31T16:54:02.483Z,25.20
2022-12-31T16:56:37.474Z,25.80
2022-12-31T16:59:31.936Z,29.93
2022-12-31T17:02:09.824Z,24.03
2022-12-31T17:04:39.988Z,32.90
2022-12-31T17:07:30.313Z,35.13
2022-12-31T17:10:09.204Z,36.57
2022-12-31T17:13:24.989Z,24.20
2022-12-31T17:15:39.658Z,44.87
2022-12-31T17:18:07.399Z,39.67
2022-12-31T17:20:34.797Z,34.77
2022-12-31T17:23:06.079Z,28.80
2022-12-31T17:25:36.137Z,24.67
2022-12-31T17:28:07.135Z,65.73
2022-12-31T17:30:34.633Z,42.80
2022-12-31T17:33:19.666Z,29.67
2022-12-31T17:35:47.150Z,33.57
2022-12-31T17:38:36.018Z,44.77
2022-12-31T17:41:05.594Z,28.47
2022-12-31T17:43:35.376Z,29.97
2022-12-31T17:46:03.545Z,31.83
2022-12-31T17:48:30.418Z,27.10
2022-12-31T17:51:01.056Z,27.47
2022-12-31T17:53:28.037Z,32.30
2022-12-31T17:56:02.363Z,29.57
2022-12-31T17:58:53.425Z,42.73
2022-12-31T18:01:22.337Z,32.80
2022-12-31T18:03:50.162Z,30.60
2022-12-31T18:06:19.351Z,32.43
2022-12-31T18:08:46.516Z,34.53
2022-12-31T18:11:20.934Z,60.33
2022-12-31T18:13:49.712Z,39.87
2022-12-31T18:16:16.979Z,39.40
2022-12-31T18:18:45.381Z,35.40
2022-12-31T18:21:34.501Z,43.97
2022-12-31T18:26:29.837Z,58.40
2022-12-31T18:29:10.091Z,40.37
2022-12-31T18:31:37.277Z,44.63
2022-12-31T18:34:04.302Z,40.80
2022-12-31T18:36:31.129Z,45.50
2022-12-31T18:38:57.936Z,21.53
2022-12-31T18:41:27.880Z,28.03
2022-12-31T18:43:54.927Z,43.70
2022-12-31T18:46:25.386Z,42.10
2022-12-31T18:48:52.223Z,51.10
2022-12-31T18:51:31.349Z,58.80
2022-12-31T18:54:02.880Z,52.23
2022-12-31T18:56:30.079Z,42.80
2022-12-31T18:58:57.076Z,50.10
2022-12-31T19:01:34.143Z,48.03
2022-12-31T19:04:26.960Z,57.07
2022-12-31T19:06:54.383Z,97.67
2022-12-31T19:09:44.629Z,53.83
2022-12-31T19:12:12.735Z,66.90
2022-12-31T19:14:39.741Z,61.53
2022-12-31T19:19:32.361Z,80.33
2022-12-31T19:21:59.179Z,78.83
2022-12-31T19:24:26.977Z,85.07
2022-12-31T19:26:54.783Z,80.87
2022-12-31T19:29:24.684Z,82.03
2022-12-31T19:31:51.993Z,82.17
2022-12-31T19:34:19.005Z,88.73
2022-12-31T19:36:45.876Z,76.37
2022-12-31T19:39:18.323Z,97.43
2022-12-31T19:41:46.097Z,85.83
2022-12-31T19:44:17.875Z,72.97
2022-12-31T19:46:45.327Z,69.90
2022-12-31T19:49:14.200Z,80.53
2022-12-31T19:51:41.784Z,67.73
2022-12-31T19:54:08.976Z,65.00
2022-12-31T19:56:35.972Z,67.17
2022-12-31T19:59:06.713Z,62.80
2022-12-31T20:01:33.915Z,113.50
2022-12-31T20:04:00.967Z,109.63
2022-12-31T20:06:27.875Z,171.77
2022-12-31T20:08:54.669Z,116.57
2022-12-31T20:11:23.800Z,172.03
2022-12-31T20:13:54.921Z,120.03
2022-12-31T20:16:24.548Z,106.20
2022-12-31T20:18:51.576Z,104.22
2022-12-31T20:21:20.998Z,103.97
2022-12-31T20:23:49.775Z,61.80
2022-12-31T20:26:17.796Z,68.87
2022-12-31T20:28:45.203Z,64.17
2022-12-31T20:31:17.489Z,56.87
2022-12-31T20:33:44.838Z,53.53
2022-12-31T20:36:14.895Z,57.43
2022-12-31T20:38:42.073Z,60.20
2022-12-31T20:41:11.921Z,63.60
2022-12-31T20:43:39.192Z,73.97
2022-12-31T20:46:15.412Z,81.10
2022-12-31T20:48:43.858Z,101.83
2022-12-31T20:51:11.048Z,113.33
2022-12-31T20:53:38.100Z,103.37
2022-12-31T20:56:09.663Z,112.20
2022-12-31T20:58:36.735Z,113.33
2022-12-31T21:01:07.518Z,108.10
2022-12-31T21:06:27.742Z,89.47
2022-12-31T21:08:59.106Z,57.10
2022-12-31T21:11:45.034Z,58.33
2022-12-31T21:14:11.824Z,50.23
2022-12-31T21:16:38.787Z,57.87
2022-12-31T21:19:05.727Z,77.37
2022-12-31T21:21:32.849Z,63.60
2022-12-31T21:23:59.713Z,54.87
2022-12-31T21:26:26.862Z,71.77
2022-12-31T21:28:53.982Z,84.70
2022-12-31T21:31:20.807Z,134.57
2022-12-31T21:33:48.438Z,110.67
2022-12-31T21:36:15.409Z,154.57
2022-12-31T21:38:42.417Z,151.43
2022-12-31T21:41:33.223Z,176.93
2022-12-31T21:44:01.077Z,172.70
2022-12-31T21:46:28.219Z,163.97
2022-12-31T21:48:57.052Z,145.83
2022-12-31T21:51:24.246Z,73.23
2022-12-31T21:53:51.204Z,57.77
2022-12-31T21:56:21.111Z,53.60
2022-12-31T21:59:13.577Z,41.13
2022-12-31T22:01:59.365Z,29.40
2022-12-31T22:07:13.454Z,20.03
2022-12-31T22:09:40.262Z,20.20
2022-12-31T22:12:07.300Z,19.57
2022-12-31T22:14:34.109Z,20.20
2022-12-31T22:17:00.943Z,29.80
2022-12-31T22:19:27.689Z,40.63
2022-12-31T22:21:54.545Z,49.90
2022-12-31T22:24:21.354Z,67.97
2022-12-31T22:26:48.284Z,58.07
2022-12-31T22:29:15.252Z,58.10
2022-12-31T22:31:42.161Z,55.00
2022-12-31T22:34:09.084Z,54.90
2022-12-31T22:36:35.983Z,73.80
2022-12-31T22:39:02.919Z,62.57
2022-12-31T22:41:29.889Z,75.73
2022-12-31T22:44:05.816Z,102.03
2022-12-31T22:46:33.997Z,85.10
2022-12-31T22:49:02.445Z,80.03
2022-12-31T22:51:54.760Z,83.37
2022-12-31T22:54:17.297Z,105.33
2022-12-31T22:56:44.109Z,114.03
2022-12-31T22:59:11.082Z,284.10
2022-12-31T23:01:38.056Z,168.30
2022-12-31T23:04:05.335Z,399.97
2022-12-31T23:06:32.881Z,619.70
2022-12-31T23:09:17.960Z,712.03
2022-12-31T23:11:44.815Z,677.07
2022-12-31T23:14:35.846Z,719.90
2022-12-31T23:17:29.810Z,778.03
2022-12-31T23:20:18.567Z,875.20
2022-12-31T23:23:04.843Z,1089.63
2022-12-31T23:25:33.533Z,1121.00
2022-12-31T23:28:00.751Z,862.97
2022-12-31T23:30:27.901Z,706.73
2022-12-31T23:32:54.912Z,827.83
2022-12-31T23:35:22.312Z,867.17
2022-12-31T23:37:49.154Z,890.70
2022-12-31T23:40:21.161Z,934.00
2022-12-31T23:42:50.071Z,965.80
2022-12-31T23:45:16.996Z,1007.47
2022-12-31T23:47:43.862Z,939.33
2022-12-31T23:50:10.750Z,932.97
2022-12-31T23:52:37.599Z,939.40
2022-12-31T23:55:04.825Z,896.07
2022-12-31T23:57:31.843Z,896.63
2022-12-31T23:59:58.749Z,895.33
